Time;durP1;ratioP1;P1;durP2;ratioP2;P2;SDS_P1;SDS_P2;PMS_P1;PMS_P2;Temp;Humidity;BMP_temperature;BMP_pressure;BME280_temperature;BME280_humidity;BME280_pressure;Samples;Min_cycle;Max_cycle;Signal;HPM_P1;HPM_P2
2022/09/02 00:00:42;;;;;;;1.73;1.63;;;23.30;39.10;24.40;100901.00;;;;5069252;28;20239;-41
2022/09/02 00:03:08;;;;;;;2.40;1.90;;;23.40;39.20;24.40;100902.00;;;;5080509;28;20215;-42
2022/09/02 00:05:34;;;;;;;2.77;1.90;;;23.30;39.10;24.40;100898.00;;;;5090602;28;20379;-43
2022/09/02 00:07:59;;;;;;;2.73;1.90;;;23.30;39.20;24.40;100900.00;;;;5077272;28;20174;-41
2022/09/02 00:10:25;;;;;;;1.90;1.80;;;23.30;39.30;24.40;100898.00;;;;5071746;28;20270;-41
2022/09/02 00:12:51;;;;;;;2.60;1.87;;;23.30;39.40;24.30;100895.00;;;;5069251;28;20264;-40
2022/09/02 00:15:17;;;;;;;1.70;1.60;;;23.20;39.40;24.30;100897.00;;;;5068912;28;20269;-41
2022/09/02 00:17:43;;;;;;;3.00;1.87;;;23.20;39.40;24.30;100899.00;;;;5068955;28;20170;-41
2022/09/02 00:20:09;;;;;;;3.73;1.97;;;23.20;39.40;24.30;100884.00;;;;5068715;28;20215;-42
2022/09/02 00:22:34;;;;;;;3.77;1.90;;;23.20;39.40;24.30;100890.00;;;;5068749;28;20230;-42
2022/09/02 00:25:00;;;;;;;2.90;1.90;;;23.20;39.40;24.30;100888.00;;;;5068540;28;20260;-40
2022/09/02 00:27:26;;;;;;;2.23;1.80;;;23.20;39.60;24.30;100889.00;;;;5068483;28;20205;-42
2022/09/02 00:29:52;;;;;;;2.10;1.70;;;23.20;39.60;24.30;100883.00;;;;5068152;28;20198;-42
2022/09/02 00:32:18;;;;;;;1.80;1.70;;;23.20;39.70;24.30;100883.00;;;;5068516;28;20174;-39
2022/09/02 00:34:44;;;;;;;2.00;1.90;;;23.20;39.80;24.20;100880.00;;;;5068670;28;20262;-40
2022/09/02 00:37:10;;;;;;;3.43;1.80;;;23.10;39.80;24.20;100879.00;;;;5068031;28;20209;-42
2022/09/02 00:39:35;;;;;;;3.37;2.00;;;23.10;39.90;24.20;100878.00;;;;5067982;28;20298;-41
2022/09/02 00:42:02;;;;;;;2.57;2.13;;;23.10;40.00;24.10;100872.00;;;;5068517;28;20228;-42
2022/09/02 00:44:28;;;;;;;2.00;1.90;;;23.00;39.90;24.10;100875.00;;;;5068198;28;20169;-40
2022/09/02 00:46:53;;;;;;;1.90;1.80;;;23.10;40.00;24.10;100872.00;;;;5068232;28;20856;-40
2022/09/02 00:49:24;;;;;;;3.67;1.80;;;23.10;40.20;24.10;100803.00;;;;5067586;28;20367;-41
2022/09/02 00:52:08;;;;;;;3.33;1.90;;;23.00;40.10;24.00;100870.00;;;;5070617;28;20158;-42
2022/09/02 00:54:39;;;;;;;2.70;1.70;;;23.00;40.20;24.00;100852.00;;;;5067408;28;20215;-43
2022/09/02 00:57:08;;;;;;;1.97;1.77;;;23.00;40.30;24.00;100871.00;;;;5067318;28;20169;-42
2022/09/02 01:00:07;;;;;;;3.43;2.10;;;22.90;40.30;24.00;100868.00;;;;5066910;28;20689;-41
2022/09/02 01:02:34;;;;;;;5.93;2.00;;;23.00;40.40;23.90;100860.00;;;;5069538;28;20173;-42
2022/09/02 01:05:01;;;;;;;1.90;1.80;;;23.00;40.40;23.90;100862.00;;;;5068180;28;20169;-42
2022/09/02 01:07:29;;;;;;;2.17;1.80;;;22.90;40.50;23.90;100861.00;;;;5067812;28;20185;-40
2022/09/02 01:09:55;;;;;;;2.83;1.90;;;22.90;40.50;23.90;100854.00;;;;5066488;28;20216;-40
2022/09/02 01:12:23;;;;;;;1.80;1.70;;;22.90;40.60;23.90;100863.00;;;;5066770;28;20177;-40
2022/09/02 01:14:48;;;;;;;3.40;2.10;;;22.90;40.50;23.90;100860.00;;;;5068256;28;20170;-42
2022/09/02 01:17:19;;;;;;;2.10;1.60;;;22.90;40.60;23.90;100837.00;;;;5069310;28;20618;-42
2022/09/02 01:19:49;;;;;;;2.90;1.90;;;22.90;40.60;23.80;100856.00;;;;5067726;28;20209;-42
2022/09/02 01:22:28;;;;;;;2.60;1.70;;;22.90;40.70;23.80;100861.00;;;;5067739;28;20227;-44
2022/09/02 01:24:55;;;;;;;2.13;1.90;;;22.80;40.60;23.80;100863.00;;;;5067142;28;20162;-40
2022/09/02 01:27:22;;;;;;;2.00;1.80;;;22.80;40.60;23.50;100860.00;;;;5067259;28;20532;-41
2022/09/02 01:29:56;;;;;;;2.63;2.10;;;22.80;41.40;23.70;100862.00;;;;5067313;28;20194;-41
2022/09/02 01:32:22;;;;;;;2.07;1.87;;;22.80;40.70;23.70;100859.00;;;;5067182;28;20212;-49
2022/09/02 01:34:49;;;;;;;3.17;2.03;;;22.70;40.70;23.70;100851.00;;;;5067334;28;20206;-40
2022/09/02 01:37:14;;;;;;;2.23;2.03;;;22.70;40.70;23.70;100857.00;;;;5067302;28;20184;-40
2022/09/02 01:39:40;;;;;;;2.30;1.90;;;22.70;40.70;23.70;100851.00;;;;5067371;28;20198;-40
2022/09/02 01:42:06;;;;;;;2.33;2.00;;;22.70;40.80;23.70;100852.00;;;;5067388;28;20273;-41
2022/09/02 01:44:36;;;;;;;1.93;1.73;;;22.70;40.80;23.70;100849.00;;;;5067580;28;20183;-40
2022/09/02 01:47:02;;;;;;;2.07;1.87;;;22.70;40.90;23.70;100846.00;;;;5065929;28;20178;-40
2022/09/02 01:49:28;;;;;;;3.33;1.77;;;22.60;40.80;23.60;100844.00;;;;5067494;28;20189;-42
2022/09/02 01:51:54;;;;;;;3.47;2.00;;;22.70;40.90;23.60;100830.00;;;;5067187;28;20180;-40
2022/09/02 01:54:19;;;;;;;1.90;1.80;;;22.60;40.90;23.60;100834.00;;;;5067476;28;20340;-40
2022/09/02 01:56:46;;;;;;;2.33;1.90;;;22.60;40.90;23.60;100843.00;;;;5068620;28;20231;-42
2022/09/02 01:59:16;;;;;;;1.90;1.80;;;22.60;40.90;23.60;100839.00;;;;5068374;28;20288;-40
2022/09/02 02:01:43;;;;;;;1.73;1.63;;;22.60;41.00;23.60;100833.00;;;;5071890;28;20154;-40
2022/09/02 02:04:10;;;;;;;2.67;1.87;;;22.60;40.90;23.60;100837.00;;;;5070514;28;20178;-42
2022/09/02 02:06:41;;;;;;;2.90;1.83;;;22.60;40.90;23.60;100829.00;;;;5071285;28;20517;-40
2022/09/02 02:09:07;;;;;;;2.43;1.90;;;22.60;40.90;23.60;100791.00;;;;5071201;28;20196;-41
2022/09/02 02:11:33;;;;;;;3.27;2.00;;;22.60;41.00;23.60;100848.00;;;;5071184;28;20175;-40
2022/09/02 02:13:58;;;;;;;2.30;1.73;;;22.50;40.90;23.50;100837.00;;;;5070959;28;20614;-40
2022/09/02 02:16:24;;;;;;;3.37;2.00;;;22.50;41.00;23.50;100834.00;;;;5071127;28;20169;-41
2022/09/02 02:18:50;;;;;;;2.03;1.83;;;22.50;41.00;23.50;100835.00;;;;5071025;28;20201;-39
2022/09/02 02:21:16;;;;;;;2.63;1.83;;;22.50;41.10;23.50;100837.00;;;;5070989;28;20286;-41
2022/09/02 02:23:41;;;;;;;1.80;1.70;;;22.50;41.10;23.50;100839.00;;;;5071997;28;20180;-41
2022/09/02 02:26:07;;;;;;;1.90;1.80;;;22.50;41.10;23.50;100834.00;;;;5072205;28;20177;-41
2022/09/02 02:28:34;;;;;;;2.37;1.87;;;22.50;41.10;23.50;100843.00;;;;5071103;28;20268;-42
2022/09/02 02:30:59;;;;;;;3.67;1.80;;;22.50;41.10;23.50;100838.00;;;;5087034;28;20197;-43
2022/09/02 02:33:27;;;;;;;2.27;1.73;;;22.40;41.20;23.50;100844.00;;;;5070696;28;20181;-42
2022/09/02 02:35:54;;;;;;;1.90;1.73;;;22.50;41.20;23.40;100831.00;;;;5070712;28;20189;-41
2022/09/02 02:38:20;;;;;;;3.27;1.87;;;22.40;41.20;23.40;100834.00;;;;5070260;28;20192;-41
2022/09/02 02:40:46;;;;;;;2.20;1.80;;;22.40;41.30;23.40;100835.00;;;;5070798;28;20194;-40
2022/09/02 02:43:11;;;;;;;2.33;2.07;;;22.40;41.30;23.40;100832.00;;;;5070631;28;20182;-39
2022/09/02 02:45:38;;;;;;;2.00;1.80;;;22.40;41.30;23.40;100832.00;;;;5086109;28;20211;-42
2022/09/02 02:48:04;;;;;;;1.90;1.80;;;22.40;41.40;23.30;100833.00;;;;5070572;28;20166;-39
2022/09/02 02:50:29;;;;;;;2.53;1.80;;;22.40;41.40;23.30;100837.00;;;;5070730;28;20592;-40
2022/09/02 02:52:55;;;;;;;2.07;1.87;;;22.40;41.40;23.30;100831.00;;;;5070433;28;20299;-40
2022/09/02 02:55:22;;;;;;;2.20;1.87;;;22.30;41.40;23.30;100848.00;;;;5070859;28;20761;-41
2022/09/02 02:57:48;;;;;;;2.00;1.80;;;22.30;41.40;23.30;100832.00;;;;5070322;28;20665;-41
2022/09/02 03:00:27;;;;;;;3.50;2.00;;;22.30;41.40;23.30;100843.00;;;;5070764;28;20209;-40
2022/09/02 03:03:03;;;;;;;2.10;1.90;;;22.30;41.40;23.30;100844.00;;;;5071129;28;20395;-42
2022/09/02 03:05:29;;;;;;;2.20;1.90;;;22.30;41.40;23.30;100830.00;;;;5073136;28;20288;-41
2022/09/02 03:07:55;;;;;;;2.13;1.90;;;22.30;41.50;23.30;100831.00;;;;5071756;28;20647;-41
2022/09/02 03:10:22;;;;;;;1.70;1.60;;;22.30;41.50;23.30;100823.00;;;;5069834;28;20247;-40
2022/09/02 03:12:48;;;;;;;2.20;2.00;;;22.30;41.60;23.30;100828.00;;;;5070448;28;20178;-41
2022/09/02 03:15:15;;;;;;;1.87;1.77;;;22.30;41.60;23.30;100834.00;;;;5070170;28;20184;-40
2022/09/02 03:17:43;;;;;;;2.33;1.90;;;22.20;41.60;23.30;100844.00;;;;5069924;28;20185;-42
2022/09/02 03:20:09;;;;;;;3.10;1.80;;;22.30;41.70;23.20;100834.00;;;;5069686;28;20206;-40
2022/09/02 03:22:37;;;;;;;2.87;2.00;;;22.20;41.60;23.20;100832.00;;;;5070939;28;20174;-41
2022/09/02 03:25:08;;;;;;;2.10;1.90;;;22.20;41.60;23.20;100838.00;;;;5070886;28;20185;-41
2022/09/02 03:27:35;;;;;;;3.97;2.00;;;22.20;41.70;23.20;100822.00;;;;5072349;28;20367;-43
2022/09/02 03:30:01;;;;;;;2.73;1.90;;;22.20;41.70;23.20;100837.00;;;;5071472;28;20201;-42
2022/09/02 03:32:26;;;;;;;2.97;1.93;;;22.30;41.90;23.20;100835.00;;;;5069938;28;20174;-39
2022/09/02 03:34:53;;;;;;;3.20;1.60;;;22.20;41.70;23.20;100827.00;;;;5069785;28;20654;-40
2022/09/02 03:37:19;;;;;;;4.00;1.77;;;22.20;41.80;23.20;100826.00;;;;5069522;28;20177;-40
2022/09/02 03:39:45;;;;;;;3.37;1.90;;;22.20;42.00;23.20;100825.00;;;;5069411;28;20222;-40
2022/09/02 03:42:11;;;;;;;5.23;2.10;;;22.20;42.10;23.20;100827.00;;;;5069768;28;20176;-40
2022/09/02 03:44:39;;;;;;;1.87;1.70;;;22.20;42.20;23.10;100821.00;;;;5069815;28;20189;-39
2022/09/02 03:47:05;;;;;;;2.60;1.90;;;22.10;42.00;23.10;100820.00;;;;5069186;28;20170;-41
2022/09/02 03:49:31;;;;;;;2.97;1.90;;;22.20;42.10;23.10;100821.00;;;;5069575;28;20832;-41
2022/09/02 03:51:56;;;;;;;2.60;1.90;;;22.10;42.10;23.10;100821.00;;;;5069206;28;20182;-41
2022/09/02 03:54:22;;;;;;;3.27;1.93;;;22.10;42.10;23.10;100819.00;;;;5069519;28;20212;-44
2022/09/02 03:56:48;;;;;;;1.70;1.60;;;22.10;42.10;23.10;100826.00;;;;5069000;28;20170;-41
2022/09/02 03:59:14;;;;;;;2.53;1.80;;;22.10;42.10;23.10;100823.00;;;;5068895;28;20614;-41
2022/09/02 04:01:40;;;;;;;2.00;1.80;;;22.10;42.20;23.10;100829.00;;;;5068992;28;20178;-42
2022/09/02 04:04:05;;;;;;;1.77;1.67;;;22.10;42.20;23.10;100824.00;;;;5069167;28;20181;-41
2022/09/02 04:06:32;;;;;;;2.33;1.80;;;22.10;42.20;23.10;100822.00;;;;5068751;28;20181;-40
2022/09/02 04:08:57;;;;;;;1.80;1.70;;;22.10;42.20;23.10;100822.00;;;;5068806;28;20197;-40
2022/09/02 04:11:23;;;;;;;2.37;2.03;;;22.10;42.20;23.10;100822.00;;;;5068964;28;20173;-41
2022/09/02 04:13:50;;;;;;;1.87;1.70;;;22.10;42.10;23.10;100836.00;;;;5068786;28;20247;-41
2022/09/02 04:16:19;;;;;;;1.90;1.80;;;22.10;42.10;23.10;100814.00;;;;5068783;28;20634;-41
2022/09/02 04:18:45;;;;;;;2.00;1.80;;;22.10;42.10;23.10;100824.00;;;;5068371;28;20198;-39
2022/09/02 04:21:11;;;;;;;1.90;1.80;;;22.20;42.10;23.10;100823.00;;;;5068508;28;20220;-41
2022/09/02 04:23:37;;;;;;;2.50;1.77;;;22.10;42.10;23.10;100824.00;;;;5069799;28;20178;-38
2022/09/02 04:26:12;;;;;;;2.43;1.80;;;22.10;42.10;23.10;100830.00;;;;5065942;28;20243;-42
2022/09/02 04:28:37;;;;;;;3.33;1.70;;;22.20;42.20;23.10;100830.00;;;;5056678;28;20195;-40
2022/09/02 04:31:08;;;;;;;2.10;1.83;;;22.20;42.10;23.10;100826.00;;;;5048116;28;20247;-41
2022/09/02 04:33:34;;;;;;;13.40;2.70;;;22.20;42.10;23.10;100821.00;;;;5048069;28;20209;-42
2022/09/02 04:36:06;;;;;;;9.67;2.50;;;22.20;42.10;23.10;100828.00;;;;5048151;28;20850;-40
2022/09/02 04:38:32;;;;;;;10.10;2.57;;;22.20;42.10;23.10;100824.00;;;;5046627;28;20595;-42
2022/09/02 04:40:58;;;;;;;11.60;2.60;;;22.20;42.20;23.10;100816.00;;;;5047022;28;20186;-41
2022/09/02 04:43:24;;;;;;;5.50;2.30;;;22.20;42.40;23.10;100819.00;;;;5048051;28;20155;-40
2022/09/02 04:45:50;;;;;;;4.60;2.20;;;22.20;42.60;23.10;100814.00;;;;5050305;28;20656;-41
2022/09/02 04:48:17;;;;;;;3.80;1.83;;;22.10;42.50;23.10;100819.00;;;;5048851;28;20182;-40
2022/09/02 04:50:44;;;;;;;4.70;2.17;;;22.10;42.60;23.10;100821.00;;;;5048394;28;20208;-40
2022/09/02 04:53:10;;;;;;;5.43;2.00;;;22.10;42.80;23.10;100823.00;;;;5047370;28;20512;-41
2022/09/02 04:55:39;;;;;;;3.67;1.90;;;22.10;42.80;23.10;100821.00;;;;5047058;28;20632;-41
2022/09/02 04:58:05;;;;;;;2.93;1.80;;;22.10;42.60;23.10;100822.00;;;;5045017;28;20247;-42
2022/09/02 05:00:30;;;;;;;2.10;2.00;;;22.10;42.60;23.10;100829.00;;;;5047911;28;20678;-42
2022/09/02 05:02:56;;;;;;;3.27;2.00;;;22.10;42.60;23.00;100819.00;;;;5047665;28;20326;-41
2022/09/02 05:05:22;;;;;;;2.03;1.83;;;22.10;42.50;23.00;100825.00;;;;5047681;28;20250;-41
2022/09/02 05:07:48;;;;;;;2.50;1.83;;;22.10;42.60;23.00;100826.00;;;;5047085;28;20654;-41
2022/09/02 05:10:15;;;;;;;2.60;2.00;;;22.10;42.80;23.00;100821.00;;;;5047202;28;20206;-41
2022/09/02 05:12:41;;;;;;;2.50;2.10;;;22.00;42.70;23.00;100819.00;;;;5047585;28;20174;-40
2022/09/02 05:15:08;;;;;;;2.03;1.90;;;22.00;42.80;23.00;100827.00;;;;5047497;28;20587;-40
2022/09/02 05:17:35;;;;;;;2.00;1.90;;;22.00;42.80;23.00;100820.00;;;;5046732;28;20267;-42
2022/09/02 05:20:04;;;;;;;2.10;1.90;;;22.00;43.00;22.90;100820.00;;;;5047195;28;20221;-41
2022/09/02 05:22:29;;;;;;;2.73;1.90;;;22.00;43.60;22.90;100831.00;;;;5046623;28;20865;-41
2022/09/02 05:24:55;;;;;;;2.57;1.80;;;22.00;43.00;22.90;100835.00;;;;5046832;28;20178;-40
2022/09/02 05:27:22;;;;;;;3.03;1.90;;;21.90;42.90;22.90;100824.00;;;;5047019;28;20261;-41
2022/09/02 05:29:48;;;;;;;2.43;1.80;;;21.90;42.90;22.90;100755.00;;;;5046544;28;20198;-41
2022/09/02 05:32:14;;;;;;;1.87;1.77;;;21.90;43.00;22.90;100821.00;;;;5062434;28;20170;-41
2022/09/02 05:34:40;;;;;;;2.40;1.90;;;21.90;43.10;22.90;100818.00;;;;5047393;28;20178;-41
2022/09/02 05:37:06;;;;;;;2.30;1.77;;;21.80;43.20;22.90;100825.00;;;;5047235;28;20183;-40
2022/09/02 05:39:32;;;;;;;1.90;1.80;;;21.90;43.30;22.80;100814.00;;;;5048784;28;20691;-40
2022/09/02 05:41:58;;;;;;;2.10;1.90;;;21.90;43.30;22.80;100821.00;;;;5046376;28;20185;-40
2022/09/02 05:44:24;;;;;;;2.80;2.00;;;21.80;43.30;22.80;100824.00;;;;5047917;28;20166;-40
2022/09/02 05:46:50;;;;;;;2.03;1.80;;;21.80;43.40;22.80;100820.00;;;;5047179;28;20166;-41
2022/09/02 05:49:16;;;;;;;2.00;1.90;;;21.80;43.50;22.80;100816.00;;;;5050808;28;20719;-40
2022/09/02 05:51:49;;;;;;;2.47;2.07;;;21.80;43.50;22.80;100817.00;;;;5047313;28;20170;-39
2022/09/02 05:54:29;;;;;;;2.47;1.90;;;21.80;43.60;22.80;100817.00;;;;5047322;28;20212;-42
2022/09/02 05:56:57;;;;;;;2.43;2.00;;;21.80;43.70;22.80;100818.00;;;;5045558;28;20586;-41
2022/09/02 05:59:25;;;;;;;3.43;2.00;;;21.80;43.80;22.80;100809.00;;;;5046804;28;20202;-40
2022/09/02 06:01:52;;;;;;;2.40;1.63;;;21.80;43.90;22.70;100820.00;;;;5047056;28;20174;-40
2022/09/02 06:04:18;;;;;;;2.23;1.80;;;21.80;43.90;22.80;100819.00;;;;5049844;28;20198;-40
2022/09/02 06:06:43;;;;;;;2.03;1.90;;;21.80;44.00;22.70;100812.00;;;;5053369;28;20706;-43
2022/09/02 06:09:12;;;;;;;4.17;2.00;;;21.80;44.00;22.70;100819.00;;;;5049364;28;20269;-40
2022/09/02 06:11:39;;;;;;;2.07;1.97;;;21.80;44.10;22.70;100820.00;;;;5048468;28;20185;-42
2022/09/02 06:14:06;;;;;;;2.40;1.87;;;21.80;44.90;22.70;100823.00;;;;5047467;28;20187;-41
2022/09/02 06:16:32;;;;;;;2.70;1.90;;;21.70;44.40;22.70;100820.00;;;;5049751;28;20882;-42
2022/09/02 06:18:58;;;;;;;3.00;1.80;;;21.70;44.50;22.70;100819.00;;;;5047302;28;20210;-42
2022/09/02 06:21:24;;;;;;;2.57;2.10;;;21.70;44.50;22.70;100823.00;;;;5062767;28;20543;-40
2022/09/02 06:23:50;;;;;;;3.00;2.10;;;21.70;44.60;22.60;100816.00;;;;5047533;28;20171;-40
2022/09/02 06:26:16;;;;;;;2.33;1.93;;;21.70;44.80;22.60;100815.00;;;;5046882;28;20175;-41
2022/09/02 06:28:42;;;;;;;3.10;1.93;;;21.70;44.80;22.60;100820.00;;;;5047234;28;20169;-40
2022/09/02 06:31:14;;;;;;;2.00;1.90;;;21.70;44.90;22.60;100820.00;;;;5047001;28;20198;-41
2022/09/02 06:33:41;;;;;;;2.00;1.90;;;21.70;44.70;22.60;100817.00;;;;5047269;28;20174;-42
2022/09/02 06:36:10;;;;;;;5.93;2.27;;;21.80;44.70;22.60;100820.00;;;;5046680;28;20174;-42
2022/09/02 06:38:40;;;;;;;2.13;1.93;;;21.80;44.80;22.60;100820.00;;;;5045652;28;20209;-41
2022/09/02 06:41:06;;;;;;;3.77;2.10;;;21.80;44.80;22.70;100825.00;;;;5046516;28;20191;-39
2022/09/02 06:43:32;;;;;;;2.10;1.90;;;21.90;44.90;22.70;100820.00;;;;5046960;28;20171;-40
2022/09/02 06:45:58;;;;;;;3.50;2.03;;;21.90;44.80;22.70;100821.00;;;;5047055;28;20184;-40
2022/09/02 06:48:24;;;;;;;2.57;1.90;;;21.90;44.80;22.70;100822.00;;;;5049668;28;20170;-41
2022/09/02 06:50:50;;;;;;;4.33;2.20;;;21.90;45.00;22.70;100814.00;;;;5049986;28;20709;-41
2022/09/02 06:53:18;;;;;;;2.77;2.03;;;21.90;45.10;22.70;100821.00;;;;5050180;28;20257;-40
2022/09/02 06:55:44;;;;;;;2.93;2.00;;;21.90;45.10;22.70;100828.00;;;;5050238;28;20233;-42
2022/09/02 06:58:10;;;;;;;2.10;1.90;;;21.90;45.30;22.60;100819.00;;;;5049637;28;20208;-42
2022/09/02 07:00:36;;;;;;;2.20;2.00;;;21.90;45.60;22.60;100822.00;;;;5049606;28;20800;-43
2022/09/02 07:05:47;;;;;;;2.67;1.93;;;21.90;45.80;22.60;100822.00;;;;5050387;28;20786;-40
2022/09/02 07:08:12;;;;;;;2.43;1.90;;;21.90;45.60;22.60;100821.00;;;;5048190;28;20170;-40
2022/09/02 07:10:39;;;;;;;3.90;2.03;;;21.90;45.80;22.60;100829.00;;;;5048958;28;20240;-42
2022/09/02 07:13:06;;;;;;;2.37;2.13;;;21.90;45.60;22.60;100821.00;;;;5049804;28;20178;-40
2022/09/02 07:15:32;;;;;;;3.33;2.13;;;21.90;45.50;22.60;100821.00;;;;4983762;28;22031;-41
2022/09/02 07:17:58;;;;;;;2.20;2.00;;;21.90;45.80;22.60;100812.00;;;;5065349;28;20174;-52
2022/09/02 07:20:24;;;;;;;4.07;2.10;;;21.90;45.80;22.50;100816.00;;;;5070319;28;20201;-40
2022/09/02 07:22:49;;;;;;;2.10;2.00;;;21.80;45.80;22.50;100820.00;;;;5068133;28;20211;-41
2022/09/02 07:25:16;;;;;;;2.27;2.03;;;21.80;45.90;22.50;100812.00;;;;5070276;28;20173;-40
2022/09/02 07:27:42;;;;;;;2.30;2.10;;;21.80;45.80;22.50;100807.00;;;;5069633;28;20173;-41
2022/09/02 07:30:10;;;;;;;2.20;2.00;;;21.80;45.90;22.50;100814.00;;;;5089899;28;20193;-41
2022/09/02 07:32:36;;;;;;;3.27;2.00;;;21.80;45.90;22.50;100816.00;;;;5089587;28;20173;-41
2022/09/02 07:35:05;;;;;;;2.57;2.07;;;21.80;46.00;22.50;100801.00;;;;5074597;28;20172;-41
2022/09/02 07:37:33;;;;;;;2.30;2.10;;;21.80;46.20;22.50;100809.00;;;;5069557;28;20205;-41
2022/09/02 07:40:01;;;;;;;2.30;2.10;;;21.80;46.20;22.50;100765.00;;;;5068592;28;20754;-41
2022/09/02 07:42:26;;;;;;;2.20;2.00;;;21.80;46.40;22.50;100798.00;;;;5068051;28;20248;-40
2022/09/02 07:44:52;;;;;;;2.40;2.20;;;21.80;46.20;22.50;100797.00;;;;5068901;28;20573;-40
2022/09/02 07:47:18;;;;;;;2.53;2.00;;;21.80;46.20;22.40;100797.00;;;;5069671;28;20199;-41
2022/09/02 07:49:44;;;;;;;3.27;2.33;;;21.80;46.80;22.50;100796.00;;;;5069396;28;20198;-40
2022/09/02 07:52:09;;;;;;;8.13;2.43;;;21.70;48.10;22.50;100794.00;;;;5069025;28;20166;-41
2022/09/02 07:54:35;;;;;;;2.83;2.30;;;21.70;47.50;22.50;100799.00;;;;5068828;28;20206;-41
2022/09/02 07:57:01;;;;;;;4.33;2.10;;;21.70;47.30;22.50;100794.00;;;;5066901;28;20235;-42
2022/09/02 07:59:26;;;;;;;3.17;2.40;;;21.70;47.50;22.60;100806.00;;;;5068390;28;20201;-39
2022/09/02 08:01:52;;;;;;;4.13;2.10;;;21.70;47.40;22.50;100803.00;;;;5068587;28;20166;-40
2022/09/02 08:04:22;;;;;;;3.37;2.10;;;21.70;47.70;22.50;100797.00;;;;5068774;28;20169;-39
2022/09/02 08:06:48;;;;;;;3.57;2.20;;;21.70;48.00;22.60;100791.00;;;;5069342;28;20181;-40
2022/09/02 08:09:13;;;;;;;2.97;2.00;;;21.70;47.80;22.60;100798.00;;;;5068641;28;20260;-41
2022/09/02 08:11:43;;;;;;;2.87;2.10;;;21.80;48.20;22.60;100790.00;;;;5067492;28;20181;-40
2022/09/02 08:14:10;;;;;;;2.50;2.20;;;21.80;48.30;22.60;100793.00;;;;5068491;28;20622;-40
2022/09/02 08:16:37;;;;;;;2.30;2.07;;;21.80;48.50;22.60;100788.00;;;;4999363;28;20747;-40
2022/09/02 08:19:06;;;;;;;2.30;2.10;;;21.80;48.30;22.60;100792.00;;;;5088452;28;20220;-40
2022/09/02 08:21:31;;;;;;;2.23;2.03;;;21.80;48.20;22.60;100797.00;;;;5086975;28;20161;-40
2022/09/02 08:23:59;;;;;;;2.27;2.07;;;21.90;48.10;22.60;100794.00;;;;5088761;28;20169;-40
2022/09/02 08:26:27;;;;;;;3.10;2.03;;;21.90;48.20;22.70;100803.00;;;;5088566;28;20218;-43
2022/09/02 08:28:53;;;;;;;2.83;2.10;;;21.90;48.00;22.70;100792.00;;;;5088070;28;20184;-41
2022/09/02 08:31:19;;;;;;;2.57;2.20;;;22.00;48.20;22.70;100793.00;;;;5088456;28;20204;-40
2022/09/02 08:33:45;;;;;;;2.40;2.20;;;22.00;47.70;22.70;100783.00;;;;5088530;28;20616;-40
2022/09/02 08:36:13;;;;;;;5.60;2.10;;;22.00;47.70;22.70;100785.00;;;;5079112;28;20282;-42
2022/09/02 08:38:40;;;;;;;3.73;2.30;;;22.00;48.00;22.70;100784.00;;;;5069872;28;20308;-40
2022/09/02 08:41:24;;;;;;;5.33;2.27;;;22.00;48.00;22.80;100784.00;;;;5070129;28;20193;-40
2022/09/02 08:43:57;;;;;;;3.47;2.10;;;22.10;48.60;22.80;100783.00;;;;5068449;28;20176;-40
2022/09/02 08:46:25;;;;;;;2.80;2.10;;;22.10;48.60;22.80;100784.00;;;;5051003;28;20162;-43
2022/09/02 08:49:07;;;;;;;2.73;2.20;;;22.10;48.60;22.90;100785.00;;;;5050948;28;20184;-42
2022/09/02 08:51:47;;;;;;;5.27;2.30;;;22.10;49.40;22.90;100784.00;;;;5051125;28;20181;-40
2022/09/02 08:54:28;;;;;;;3.43;2.17;;;22.10;49.20;22.90;100777.00;;;;5051293;28;20169;-40
2022/09/02 08:56:55;;;;;;;4.63;2.30;;;22.20;48.90;23.00;100764.00;;;;5070275;28;20180;-40
2022/09/02 08:59:21;;;;;;;2.53;2.20;;;22.10;48.00;23.00;100770.00;;;;5067816;28;20209;-43
2022/09/02 09:01:52;;;;;;;4.23;2.13;;;22.20;48.10;23.00;100773.00;;;;5068736;28;20655;-39
2022/09/02 09:04:30;;;;;;;2.47;2.00;;;22.20;48.20;23.00;100775.00;;;;5067094;28;20174;-41
2022/09/02 09:07:05;;;;;;;2.40;2.20;;;22.30;48.00;23.00;100772.00;;;;5068202;28;20161;-41
2022/09/02 09:09:56;;;;;;;3.40;2.20;;;22.30;47.80;23.00;100777.00;;;;5067158;28;20692;-41
2022/09/02 09:12:41;;;;;;;2.30;2.10;;;22.20;47.80;23.00;100769.00;;;;5067379;28;20162;-41
2022/09/02 09:15:32;;;;;;;2.40;2.20;;;22.20;47.60;23.00;100771.00;;;;5068296;28;20228;-42
2022/09/02 09:18:01;;;;;;;2.57;2.27;;;22.30;47.40;23.00;100757.00;;;;5055874;28;20158;-41
2022/09/02 09:20:32;;;;;;;2.23;2.00;;;22.20;47.00;23.00;100755.00;;;;5069290;28;20220;-42
2022/09/02 09:23:08;;;;;;;2.30;2.10;;;22.20;47.10;23.00;100758.00;;;;5068067;28;20241;-42
2022/09/02 09:25:34;;;;;;;2.20;2.00;;;22.20;47.20;23.10;100743.00;;;;5050997;28;20185;-41
2022/09/02 09:27:59;;;;;;;2.43;2.20;;;22.30;47.30;23.10;100751.00;;;;5067626;28;20657;-42
2022/09/02 09:30:26;;;;;;;2.83;2.10;;;22.30;47.20;23.10;100751.00;;;;5068743;28;20193;-40
2022/09/02 09:32:53;;;;;;;5.07;2.40;;;22.30;47.30;23.10;100751.00;;;;5068531;28;20174;-41
2022/09/02 09:35:19;;;;;;;3.07;2.20;;;22.30;47.00;23.10;100733.00;;;;5062424;28;20209;-40
2022/09/02 09:37:51;;;;;;;2.10;1.90;;;22.40;46.80;23.20;100737.00;;;;5004830;28;20264;-40
2022/09/02 09:40:20;;;;;;;3.90;2.00;;;22.40;47.00;23.20;100738.00;;;;5065904;28;20224;-41
2022/09/02 09:43:04;;;;;;;2.80;2.30;;;22.40;47.10;23.20;100726.00;;;;5067323;28;20226;-41
2022/09/02 09:45:36;;;;;;;2.60;2.10;;;22.40;46.90;23.20;100726.00;;;;5066926;28;20169;-40
2022/09/02 09:48:28;;;;;;;2.20;2.10;;;22.50;46.30;23.20;100725.00;;;;5066970;28;20176;-42
2022/09/02 09:50:54;;;;;;;2.00;1.90;;;22.50;45.70;23.20;100731.00;;;;5066880;28;20205;-41
2022/09/02 09:53:21;;;;;;;3.20;2.07;;;22.50;45.60;23.30;100718.00;;;;5067031;28;20179;-42
2022/09/02 09:56:05;;;;;;;4.17;2.17;;;22.50;45.60;23.30;100709.00;;;;5068170;28;20173;-40
2022/09/02 09:58:40;;;;;;;2.13;1.93;;;22.60;44.70;23.30;100734.00;;;;5050770;28;20241;-42
2022/09/02 10:01:29;;;;;;;2.70;2.10;;;22.60;44.10;23.30;100730.00;;;;5066706;28;20189;-40
2022/09/02 10:04:08;;;;;;;2.10;2.00;;;22.60;43.00;23.30;100732.00;;;;5050241;28;20162;-41
2022/09/02 10:06:42;;;;;;;3.13;2.10;;;22.60;43.10;23.30;100726.00;;;;5049551;28;20646;-41
2022/09/02 10:09:13;;;;;;;2.23;2.00;;;22.70;43.40;23.40;100719.00;;;;5066795;28;20185;-41
2022/09/02 10:11:59;;;;;;;4.27;2.10;;;22.70;43.60;23.40;100716.00;;;;5066955;28;20177;-41
2022/09/02 10:14:44;;;;;;;3.87;2.00;;;22.70;45.00;23.40;100707.00;;;;5066058;28;20219;-41
2022/09/02 10:18:00;;;;;;;4.27;1.93;;;22.70;45.40;23.50;100701.00;;;;5052055;28;20283;-43
2022/09/02 10:20:49;;;;;;;7.00;2.37;;;22.70;44.90;23.50;100707.00;;;;5051467;28;20620;-41
2022/09/02 10:23:39;;;;;;;2.30;2.03;;;22.70;45.10;23.50;100712.00;;;;5054291;28;20209;-40
2022/09/02 10:26:14;;;;;;;4.33;2.00;;;22.70;45.50;23.50;100712.00;;;;5054522;28;20532;-43
2022/09/02 10:28:57;;;;;;;2.17;2.00;;;22.70;45.60;23.50;100714.00;;;;5069078;28;20173;-42
2022/09/02 10:31:36;;;;;;;2.87;1.83;;;22.70;45.80;23.50;100704.00;;;;5069565;28;20173;-42
2022/09/02 10:34:24;;;;;;;2.20;2.00;;;22.70;45.80;23.60;100707.00;;;;5052917;28;20181;-43
2022/09/02 10:37:18;;;;;;;1.90;1.80;;;22.70;45.90;23.60;100697.00;;;;5044950;28;20181;-44
2022/09/02 10:39:58;;;;;;;3.07;1.93;;;22.80;46.00;23.60;100691.00;;;;5064547;28;20214;-41
2022/09/02 10:42:58;;;;;;;2.33;2.00;;;22.80;46.20;23.60;100694.00;;;;5053057;28;20162;-40
2022/09/02 10:45:33;;;;;;;1.97;1.80;;;22.80;46.00;23.60;100686.00;;;;5050527;28;20162;-42
2022/09/02 10:48:23;;;;;;;3.33;2.10;;;22.80;46.10;23.60;100684.00;;;;5051983;28;20166;-41
2022/09/02 10:51:13;;;;;;;2.10;1.90;;;22.80;46.00;23.70;100695.00;;;;5051468;28;20269;-41
2022/09/02 10:54:08;;;;;;;2.10;1.90;;;22.90;46.10;23.70;100691.00;;;;5050662;28;20159;-42
2022/09/02 10:56:44;;;;;;;2.27;2.07;;;22.90;46.10;23.70;100690.00;;;;5050511;28;20166;-43
2022/09/02 10:59:18;;;;;;;2.43;2.10;;;22.90;45.90;23.70;100690.00;;;;5049042;28;20276;-43